Time;durP1;ratioP1;P1;durP2;ratioP2;P2;SDS_P1;SDS_P2;PMS_P1;PMS_P2;Temp;Humidity;BMP_temperature;BMP_pressure;BME280_temperature;BME280_humidity;BME280_pressure;Samples;Min_cycle;Max_cycle;Signal;HPM_P1;HPM_P2
2022/01/06 00:01:28;;;;;;;3.95;1.60;;;16.40;45.90;;;;;;5039282;28;20129;-40
2022/01/06 00:03:55;;;;;;;5.53;1.23;;;16.30;46.00;;;;;;5058125;28;20016;-42
2022/01/06 00:06:23;;;;;;;5.03;1.38;;;16.30;46.10;;;;;;5057022;28;20021;-42
2022/01/06 00:08:49;;;;;;;4.95;1.50;;;16.20;46.30;;;;;;5057484;28;20060;-40
2022/01/06 00:11:16;;;;;;;4.65;1.40;;;16.20;46.50;;;;;;5057066;28;20024;-40
2022/01/06 00:13:50;;;;;;;3.13;1.05;;;16.10;46.50;;;;;;5057851;28;20021;-38
2022/01/06 00:24:19;;;;;;;2.80;1.10;;;16.00;46.80;;;;;;5056024;28;20028;-42
2022/01/06 00:26:48;;;;;;;4.18;1.38;;;16.00;46.90;;;;;;5056693;28;20133;-40
2022/01/06 00:29:14;;;;;;;3.67;1.40;;;16.00;47.00;;;;;;5059000;28;20091;-42
2022/01/06 00:31:40;;;;;;;3.70;1.20;;;15.90;47.10;;;;;;5059134;28;20017;-40
2022/01/06 00:34:10;;;;;;;3.05;1.23;;;15.90;47.20;;;;;;5059140;28;20028;-39
2022/01/06 00:36:39;;;;;;;3.67;1.45;;;15.90;47.30;;;;;;5058086;28;20056;-43
2022/01/06 00:39:05;;;;;;;3.53;1.10;;;15.90;47.30;;;;;;5056297;28;20002;-45
2022/01/06 00:41:34;;;;;;;3.28;1.17;;;15.80;47.30;;;;;;5059042;28;20045;-44
2022/01/06 00:43:59;;;;;;;4.53;1.30;;;15.80;47.40;;;;;;5062537;28;20031;-44
2022/01/06 00:46:26;;;;;;;2.90;1.27;;;15.80;47.50;;;;;;5061897;28;20064;-41
2022/01/06 00:48:51;;;;;;;4.65;1.40;;;15.70;47.70;;;;;;5060825;28;20025;-40
2022/01/06 00:51:17;;;;;;;2.75;1.10;;;15.70;47.70;;;;;;5042723;28;20040;-45
2022/01/06 00:53:43;;;;;;;3.47;1.25;;;15.70;47.70;;;;;;5060312;28;20028;-44
2022/01/06 00:56:09;;;;;;;4.10;1.20;;;15.70;47.70;;;;;;5060609;28;20045;-41
2022/01/06 00:58:35;;;;;;;2.78;1.00;;;15.70;47.80;;;;;;5028444;28;20071;-41
2022/01/06 01:01:02;;;;;;;2.85;1.02;;;15.70;47.90;;;;;;5057125;28;20013;-40
2022/01/06 01:03:28;;;;;;;2.28;1.05;;;15.60;47.80;;;;;;5023341;28;20025;-42
2022/01/06 01:05:55;;;;;;;3.35;1.25;;;15.60;48.10;;;;;;5056337;28;20468;-43
2022/01/06 01:08:21;;;;;;;3.95;1.50;;;15.50;48.10;;;;;;5056242;28;20036;-40
2022/01/06 01:10:47;;;;;;;3.22;1.10;;;15.50;48.30;;;;;;5038481;28;20029;-40
2022/01/06 01:13:14;;;;;;;2.80;1.20;;;15.40;48.20;;;;;;5038338;28;20103;-41
2022/01/06 01:15:51;;;;;;;2.47;1.10;;;15.40;48.30;;;;;;5055738;28;20060;-39
2022/01/06 01:18:19;;;;;;;3.78;1.00;;;15.40;48.30;;;;;;5039758;28;20020;-43
2022/01/06 01:20:45;;;;;;;4.30;1.45;;;15.40;48.40;;;;;;5055234;28;20021;-40
2022/01/06 01:23:12;;;;;;;2.85;1.20;;;15.30;48.40;;;;;;5055421;28;20063;-40
2022/01/06 01:25:38;;;;;;;4.40;1.48;;;15.30;48.60;;;;;;5055036;28;20013;-40
2022/01/06 01:28:05;;;;;;;4.18;1.35;;;15.30;48.60;;;;;;5037865;28;20048;-40
2022/01/06 01:30:39;;;;;;;3.08;1.10;;;15.30;48.70;;;;;;5059217;28;20040;-45
2022/01/06 01:33:14;;;;;;;4.07;1.05;;;15.30;48.70;;;;;;5061161;28;20041;-42
2022/01/06 01:35:40;;;;;;;2.53;1.25;;;15.30;48.80;;;;;;5060670;28;20548;-45
2022/01/06 01:38:06;;;;;;;3.20;1.27;;;15.20;48.90;;;;;;5061128;28;20511;-42
2022/01/06 01:40:33;;;;;;;3.33;1.20;;;15.20;48.90;;;;;;5060908;28;20022;-36
2022/01/06 01:42:59;;;;;;;4.10;1.08;;;15.10;48.90;;;;;;5060188;28;20521;-36
2022/01/06 01:45:29;;;;;;;5.82;1.30;;;15.20;49.10;;;;;;5040053;28;20017;-36
2022/01/06 01:47:57;;;;;;;;;;;15.20;49.10;;;;;;5056056;28;20147;-36
2022/01/06 01:50:22;;;;;;;4.57;1.17;;;15.20;49.10;;;;;;5055958;28;19911;-36
2022/01/06 01:52:50;;;;;;;2.90;1.00;;;15.10;49.10;;;;;;5037463;28;20120;-36
2022/01/06 01:55:26;;;;;;;3.00;1.33;;;15.10;49.20;;;;;;5055758;28;20041;-36
2022/01/06 01:57:52;;;;;;;3.95;1.25;;;15.10;49.20;;;;;;5056211;28;20017;-36
2022/01/06 02:00:24;;;;;;;3.20;1.15;;;15.10;49.20;;;;;;5055378;28;20017;-36
2022/01/06 02:02:51;;;;;;;2.92;1.30;;;15.10;49.20;;;;;;5054849;28;20006;-36
2022/01/06 02:05:26;;;;;;;3.80;1.27;;;15.00;49.30;;;;;;5054582;28;20119;-36
2022/01/06 02:07:52;;;;;;;4.65;1.35;;;15.00;49.30;;;;;;5054277;28;20025;-36
2022/01/06 02:10:20;;;;;;;4.50;1.45;;;15.00;49.40;;;;;;5054026;28;20013;-36
2022/01/06 02:12:48;;;;;;;3.92;1.33;;;15.00;49.40;;;;;;5053971;28;20488;-35
2022/01/06 02:15:14;;;;;;;4.55;1.50;;;15.00;49.40;;;;;;5055015;28;20479;-36
2022/01/06 02:17:41;;;;;;;3.97;1.67;;;15.00;49.50;;;;;;5055381;28;20056;-36
2022/01/06 02:20:12;;;;;;;4.03;1.25;;;15.00;49.50;;;;;;5037515;28;20025;-38
2022/01/06 02:22:38;;;;;;;2.95;1.10;;;15.00;49.50;;;;;;5055025;28;20021;-38
2022/01/06 02:25:14;;;;;;;4.53;1.38;;;14.90;49.50;;;;;;5037054;28;20112;-38
2022/01/06 02:27:40;;;;;;;3.22;1.55;;;14.90;49.60;;;;;;5054884;28;20501;-38
2022/01/06 02:30:07;;;;;;;4.07;1.50;;;14.90;49.60;;;;;;5054082;28;20025;-38
2022/01/06 02:32:33;;;;;;;3.92;1.33;;;14.90;49.60;;;;;;5036108;28;20479;-38
2022/01/06 02:35:12;;;;;;;4.00;1.58;;;14.90;49.70;;;;;;5054207;28;20023;-38
2022/01/06 02:37:37;;;;;;;3.25;1.50;;;14.90;50.20;;;;;;5054027;28;20061;-38
2022/01/06 02:40:14;;;;;;;4.55;1.50;;;14.90;49.70;;;;;;5036117;28;20047;-38
2022/01/06 02:42:46;;;;;;;4.88;1.58;;;14.90;49.60;;;;;;5054145;28;20480;-39
2022/01/06 02:45:14;;;;;;;4.45;1.45;;;14.80;49.70;;;;;;5053791;28;20017;-38
2022/01/06 02:47:40;;;;;;;3.63;1.40;;;14.90;49.80;;;;;;5054394;28;20045;-39
2022/01/06 02:50:07;;;;;;;5.15;1.75;;;14.80;49.70;;;;;;5053771;28;20048;-39
2022/01/06 02:52:32;;;;;;;2.90;1.40;;;14.80;49.70;;;;;;5036616;28;20020;-39
2022/01/06 02:54:58;;;;;;;4.32;1.63;;;14.80;49.80;;;;;;5053754;28;20117;-39
2022/01/06 02:57:25;;;;;;;3.58;1.35;;;14.80;49.80;;;;;;5053619;28;20032;-39
2022/01/06 02:59:51;;;;;;;3.97;1.60;;;14.80;49.80;;;;;;5054600;28;20494;-36
2022/01/06 03:02:17;;;;;;;3.63;1.60;;;14.80;49.80;;;;;;5055825;28;20022;-36
2022/01/06 03:04:44;;;;;;;4.10;1.60;;;14.80;49.80;;;;;;5055079;28;20096;-36
2022/01/06 03:07:09;;;;;;;4.10;1.83;;;14.80;49.90;;;;;;5055307;28;20059;-36
2022/01/06 03:09:39;;;;;;;5.28;1.60;;;14.80;49.90;;;;;;5055500;28;20479;-36
2022/01/06 03:12:06;;;;;;;4.40;1.52;;;14.80;50.00;;;;;;5055633;28;20021;-36
2022/01/06 03:14:32;;;;;;;4.97;2.10;;;14.80;50.00;;;;;;5055467;28;20023;-36
2022/01/06 03:16:58;;;;;;;3.25;1.40;;;14.80;50.00;;;;;;5055249;28;20025;-37
2022/01/06 03:19:25;;;;;;;4.72;1.60;;;14.80;50.10;;;;;;5054649;28;20062;-36
2022/01/06 03:21:51;;;;;;;3.75;1.45;;;14.70;50.10;;;;;;5055304;28;20077;-36
2022/01/06 03:24:18;;;;;;;3.50;1.42;;;14.70;50.10;;;;;;5055417;28;20037;-36
2022/01/06 03:26:43;;;;;;;6.38;1.98;;;14.60;50.20;;;;;;5055479;28;20036;-36
2022/01/06 03:29:09;;;;;;;5.68;1.90;;;14.60;50.20;;;;;;5054492;28;20021;-36
2022/01/06 03:31:35;;;;;;;3.45;1.63;;;14.60;50.20;;;;;;5035315;28;21085;-36
2022/01/06 03:34:01;;;;;;;5.03;1.90;;;14.70;50.30;;;;;;5052899;28;20036;-36
2022/01/06 03:36:28;;;;;;;4.18;1.48;;;14.70;50.10;;;;;;5052942;28;20029;-35
2022/01/06 03:38:54;;;;;;;3.97;1.90;;;14.70;50.10;;;;;;5052755;28;20009;-35
2022/01/06 03:41:21;;;;;;;5.80;1.98;;;14.60;50.10;;;;;;5052722;28;20009;-35
2022/01/06 03:43:47;;;;;;;5.38;2.08;;;14.70;50.00;;;;;;5053157;28;20475;-35
2022/01/06 03:46:12;;;;;;;5.18;1.90;;;14.70;50.00;;;;;;5053342;28;20021;-36
2022/01/06 03:48:38;;;;;;;3.92;1.63;;;14.70;50.00;;;;;;5052794;28;20079;-35
2022/01/06 03:51:04;;;;;;;4.43;1.58;;;14.70;50.00;;;;;;5052995;28;20017;-35
2022/01/06 03:53:30;;;;;;;4.15;1.63;;;14.70;50.10;;;;;;5052576;28;20017;-36
2022/01/06 03:55:57;;;;;;;5.57;1.90;;;14.70;50.00;;;;;;5052220;28;20049;-35
2022/01/06 03:58:23;;;;;;;6.78;1.95;;;14.70;50.00;;;;;;5052933;28;20067;-36
2022/01/06 04:00:48;;;;;;;5.60;1.90;;;14.60;50.50;;;;;;5053062;28;20029;-36
2022/01/06 04:03:15;;;;;;;6.18;1.90;;;14.70;50.00;;;;;;5052914;28;20021;-36
2022/01/06 04:05:42;;;;;;;3.85;1.60;;;14.70;50.10;;;;;;5052774;28;20087;-36
2022/01/06 04:08:08;;;;;;;5.40;2.00;;;14.60;50.10;;;;;;5053315;28;20033;-36
2022/01/06 04:10:35;;;;;;;3.22;1.60;;;14.60;50.10;;;;;;5053423;28;20049;-36
2022/01/06 04:13:03;;;;;;;5.20;1.80;;;14.70;50.10;;;;;;5053670;28;20096;-36
2022/01/06 04:15:29;;;;;;;5.97;1.65;;;14.60;50.10;;;;;;5053669;28;20021;-36
2022/01/06 04:17:55;;;;;;;5.68;2.10;;;14.60;50.00;;;;;;5056389;28;20108;-36
2022/01/06 04:20:21;;;;;;;6.30;1.77;;;14.60;50.00;;;;;;5056337;28;20120;-36
2022/01/06 04:22:47;;;;;;;4.82;1.80;;;14.70;49.90;;;;;;5038677;28;20096;-36
2022/01/06 04:25:14;;;;;;;4.63;1.65;;;14.70;49.90;;;;;;5056040;28;20383;-36
2022/01/06 04:27:41;;;;;;;5.00;1.80;;;14.70;50.00;;;;;;5038799;28;20024;-36
2022/01/06 04:30:08;;;;;;;4.88;1.75;;;14.60;50.00;;;;;;5056050;28;20099;-37
2022/01/06 04:32:34;;;;;;;5.53;1.95;;;14.60;49.90;;;;;;5057130;28;20063;-36
2022/01/06 04:35:00;;;;;;;7.53;1.95;;;14.60;50.00;;;;;;5057189;28;20014;-36
2022/01/06 04:37:28;;;;;;;4.65;1.50;;;14.70;50.10;;;;;;5058145;28;20028;-36
2022/01/06 04:39:54;;;;;;;6.22;2.03;;;14.60;50.10;;;;;;5059629;28;20017;-36
2022/01/06 04:42:20;;;;;;;4.85;1.95;;;14.60;50.20;;;;;;5061010;28;20495;-37
2022/01/06 04:44:47;;;;;;;6.13;1.90;;;14.60;50.00;;;;;;5060885;28;20022;-37
2022/01/06 04:47:13;;;;;;;5.65;2.25;;;14.60;50.00;;;;;;5060955;28;20025;-36
2022/01/06 04:49:39;;;;;;;4.93;1.75;;;14.60;50.00;;;;;;5061340;28;20490;-36
2022/01/06 04:52:06;;;;;;;4.10;1.88;;;14.60;50.10;;;;;;5061817;28;20033;-36
2022/01/06 04:54:32;;;;;;;5.07;1.75;;;14.60;50.10;;;;;;5044362;28;20055;-37
2022/01/06 04:56:58;;;;;;;4.70;1.80;;;14.60;50.00;;;;;;5061822;28;20029;-36
2022/01/06 04:59:24;;;;;;;5.55;1.88;;;14.60;50.00;;;;;;5060177;28;20016;-38
2022/01/06 05:01:50;;;;;;;6.32;1.98;;;14.60;50.20;;;;;;5056415;28;20020;-38
2022/01/06 05:04:15;;;;;;;6.13;1.83;;;14.60;50.20;;;;;;5055622;28;20356;-38
2022/01/06 05:06:43;;;;;;;6.25;2.00;;;14.60;50.20;;;;;;5055661;28;20025;-38
2022/01/06 05:09:09;;;;;;;5.50;1.75;;;14.50;50.20;;;;;;5055391;28;20009;-37
2022/01/06 05:11:35;;;;;;;4.93;1.92;;;14.50;50.20;;;;;;5055643;28;20070;-38
2022/01/06 05:14:01;;;;;;;4.95;2.05;;;14.60;50.30;;;;;;5056992;28;20463;-39
2022/01/06 05:16:27;;;;;;;5.97;2.10;;;14.60;50.30;;;;;;5060700;28;20025;-38
2022/01/06 05:18:54;;;;;;;6.15;1.98;;;14.50;50.30;;;;;;5060635;28;20021;-38
2022/01/06 05:21:19;;;;;;;6.63;2.00;;;14.50;50.30;;;;;;5057849;28;20028;-39
2022/01/06 05:23:46;;;;;;;5.55;2.10;;;14.50;50.30;;;;;;5039460;28;20020;-40
2022/01/06 05:26:12;;;;;;;5.78;1.95;;;14.50;50.30;;;;;;5057643;28;20025;-40
2022/01/06 05:28:38;;;;;;;6.13;2.20;;;14.50;50.40;;;;;;5057173;28;20037;-39
2022/01/06 05:31:04;;;;;;;5.25;2.05;;;14.50;50.30;;;;;;5058466;28;20070;-39
2022/01/06 05:33:31;;;;;;;4.88;1.80;;;14.50;50.20;;;;;;5059031;28;20092;-39
2022/01/06 05:35:56;;;;;;;4.35;1.85;;;14.60;50.00;;;;;;5058823;28;20108;-40
2022/01/06 05:38:22;;;;;;;5.60;1.75;;;14.70;49.90;;;;;;5041695;28;20068;-40
2022/01/06 05:40:48;;;;;;;4.47;1.80;;;14.80;49.70;;;;;;5059014;28;20025;-37
2022/01/06 05:43:14;;;;;;;6.38;1.95;;;14.90;49.20;;;;;;5059270;28;20411;-36
2022/01/06 05:45:40;;;;;;;4.13;1.70;;;15.00;48.90;;;;;;5058454;28;20033;-36
2022/01/06 05:48:07;;;;;;;4.47;1.80;;;15.10;48.60;;;;;;5059421;28;20029;-36
2022/01/06 05:50:34;;;;;;;4.93;1.80;;;15.20;48.40;;;;;;5059003;28;20047;-37
2022/01/06 05:53:00;;;;;;;5.15;2.00;;;15.30;48.20;;;;;;5057956;28;20036;-36
2022/01/06 05:55:26;;;;;;;4.13;1.90;;;15.40;48.00;;;;;;5057743;28;20419;-37
2022/01/06 05:57:53;;;;;;;4.93;2.20;;;15.40;47.80;;;;;;5056975;28;20033;-36
2022/01/06 06:00:19;;;;;;;4.30;1.65;;;15.50;47.60;;;;;;5056929;28;20060;-38
2022/01/06 06:02:45;;;;;;;5.28;1.83;;;15.50;47.50;;;;;;5056431;28;20509;-39
2022/01/06 06:05:11;;;;;;;4.32;1.60;;;15.60;47.40;;;;;;5055868;28;20068;-39
2022/01/06 06:07:38;;;;;;;5.47;2.17;;;15.70;47.20;;;;;;5055485;28;20028;-38
2022/01/06 06:10:05;;;;;;;4.70;1.80;;;15.80;47.10;;;;;;5055531;28;20039;-39
2022/01/06 06:12:31;;;;;;;6.47;2.30;;;15.80;46.90;;;;;;5055111;28;20111;-38
2022/01/06 06:14:58;;;;;;;6.18;2.10;;;15.90;46.70;;;;;;5056931;28;20027;-41
2022/01/06 06:17:26;;;;;;;4.65;1.98;;;15.90;46.60;;;;;;5058962;28;20037;-39
2022/01/06 06:19:52;;;;;;;4.43;1.73;;;16.00;46.50;;;;;;5058445;28;20017;-38
2022/01/06 06:22:17;;;;;;;4.45;1.80;;;16.00;46.30;;;;;;5058285;28;20031;-38
2022/01/06 06:24:45;;;;;;;5.07;2.00;;;16.10;46.20;;;;;;5057929;28;20419;-38
2022/01/06 06:27:10;;;;;;;6.03;2.00;;;16.10;46.10;;;;;;5057458;28;20574;-39
2022/01/06 06:29:37;;;;;;;3.90;1.60;;;16.20;46.00;;;;;;5056629;28;20071;-38
2022/01/06 06:32:04;;;;;;;3.63;1.70;;;16.20;45.90;;;;;;5035858;28;20422;-39
2022/01/06 06:34:30;;;;;;;4.45;1.88;;;16.20;45.80;;;;;;5054416;28;20038;-40
2022/01/06 06:36:56;;;;;;;4.47;1.70;;;16.30;45.80;;;;;;5054050;28;20025;-38
2022/01/06 06:39:22;;;;;;;5.07;1.98;;;16.20;45.60;;;;;;5053233;28;20017;-36
2022/01/06 06:41:48;;;;;;;5.15;1.90;;;16.30;45.70;;;;;;5053507;28;20032;-36
2022/01/06 06:44:14;;;;;;;6.57;1.92;;;16.30;45.50;;;;;;5054012;28;20009;-37
2022/01/06 06:46:40;;;;;;;3.88;1.55;;;16.30;45.40;;;;;;5036759;28;20511;-37
2022/01/06 06:49:07;;;;;;;3.65;1.85;;;16.40;45.40;;;;;;5054032;28;20421;-36
2022/01/06 06:51:33;;;;;;;3.22;1.63;;;16.40;45.40;;;;;;5054490;28;20020;-36
2022/01/06 06:53:59;;;;;;;7.03;2.35;;;16.40;45.30;;;;;;5036390;28;20061;-36
2022/01/06 06:56:25;;;;;;;5.63;1.80;;;16.40;45.20;;;;;;5054389;28;20036;-37
2022/01/06 06:58:51;;;;;;;4.82;2.03;;;16.40;45.20;;;;;;5036153;28;20096;-37
2022/01/06 07:01:18;;;;;;;6.00;2.28;;;16.40;45.10;;;;;;5053387;28;20032;-36
2022/01/06 07:03:44;;;;;;;4.93;1.88;;;16.40;45.10;;;;;;5053976;28;20013;-36
2022/01/06 07:06:10;;;;;;;5.43;1.80;;;16.50;45.10;;;;;;5053293;28;20035;-36
2022/01/06 07:08:36;;;;;;;3.53;1.60;;;16.50;45.10;;;;;;5035646;28;20043;-35
2022/01/06 07:11:02;;;;;;;4.93;1.73;;;16.50;45.00;;;;;;5053310;28;20476;-36
2022/01/06 07:13:27;;;;;;;4.20;1.75;;;16.50;45.00;;;;;;5053281;28;20040;-36
2022/01/06 07:15:53;;;;;;;4.38;1.60;;;16.50;44.90;;;;;;5036184;28;20029;-36
2022/01/06 07:18:20;;;;;;;5.22;1.80;;;16.50;44.80;;;;;;5053637;28;20035;-36
2022/01/06 07:20:46;;;;;;;4.28;1.50;;;16.60;44.70;;;;;;5053299;28;20494;-36
2022/01/06 07:23:12;;;;;;;5.82;1.85;;;16.60;44.60;;;;;;5053618;28;20018;-36
2022/01/06 07:25:38;;;;;;;4.28;1.65;;;16.70;44.60;;;;;;5053432;28;20055;-35
2022/01/06 07:28:04;;;;;;;4.10;1.63;;;16.70;44.60;;;;;;5053784;28;20021;-35
2022/01/06 07:30:33;;;;;;;4.63;1.77;;;16.60;44.50;;;;;;5055267;28;20020;-36
2022/01/06 07:32:59;;;;;;;5.90;1.92;;;16.70;44.50;;;;;;5054092;28;20067;-36
2022/01/06 07:35:25;;;;;;;3.30;1.50;;;16.70;44.50;;;;;;5036133;28;20460;-36
2022/01/06 07:37:51;;;;;;;3.15;1.50;;;16.70;44.50;;;;;;5053537;28;20013;-37
2022/01/06 07:40:18;;;;;;;3.72;1.55;;;16.70;44.40;;;;;;5053353;28;20028;-36
2022/01/06 07:42:45;;;;;;;3.13;1.58;;;16.70;44.40;;;;;;5019232;28;20009;-36
2022/01/06 07:45:11;;;;;;;3.75;1.50;;;16.80;44.40;;;;;;5054470;28;20360;-36
2022/01/06 07:47:44;;;;;;;3.00;1.23;;;16.80;44.40;;;;;;5054746;28;20043;-38
2022/01/06 07:50:09;;;;;;;3.95;1.88;;;16.80;44.30;;;;;;5038524;28;20033;-36
2022/01/06 07:52:35;;;;;;;3.22;1.33;;;16.70;44.30;;;;;;5059478;28;20059;-36
2022/01/06 07:55:01;;;;;;;3.78;1.83;;;16.80;44.30;;;;;;5059564;28;20041;-36
2022/01/06 07:57:28;;;;;;;3.97;1.75;;;16.80;44.30;;;;;;5059505;28;20035;-37
2022/01/06 07:59:53;;;;;;;3.55;1.55;;;16.80;44.30;;;;;;5059448;28;20023;-39
2022/01/06 08:02:20;;;;;;;4.60;1.75;;;16.80;44.20;;;;;;5059248;28;20080;-38
2022/01/06 08:04:45;;;;;;;4.63;1.60;;;16.80;44.10;;;;;;5040776;28;20036;-38
2022/01/06 08:07:12;;;;;;;5.90;1.80;;;16.90;44.20;;;;;;5041540;28;20020;-38
2022/01/06 08:09:43;;;;;;;4.35;1.30;;;16.90;44.10;;;;;;5041727;28;20020;-38
2022/01/06 08:12:09;;;;;;;4.72;1.63;;;16.90;44.10;;;;;;5059577;28;20029;-39
2022/01/06 08:14:36;;;;;;;4.07;1.63;;;16.90;43.90;;;;;;5041911;28;20021;-38
2022/01/06 08:17:02;;;;;;;3.90;1.50;;;16.90;43.90;;;;;;5041974;28;20051;-39
2022/01/06 08:19:29;;;;;;;3.63;1.60;;;16.90;43.90;;;;;;5059585;28;20360;-39
2022/01/06 08:21:55;;;;;;;3.25;1.33;;;16.90;43.80;;;;;;5041454;28;20040;-39
2022/01/06 08:24:21;;;;;;;4.47;1.60;;;17.00;43.80;;;;;;5024466;28;20021;-39
2022/01/06 08:26:46;;;;;;;4.90;1.83;;;17.00;43.80;;;;;;5059167;28;20095;-39
2022/01/06 08:29:13;;;;;;;5.10;1.65;;;17.00;43.80;;;;;;5040891;28;20484;-39
2022/01/06 08:31:39;;;;;;;4.88;1.70;;;17.00;43.70;;;;;;5058921;28;20025;-39
2022/01/06 08:34:06;;;;;;;3.28;1.55;;;17.00;43.80;;;;;;5058835;28;20033;-39
2022/01/06 08:36:32;;;;;;;3.25;1.48;;;17.00;43.70;;;;;;5058525;28;20021;-39
2022/01/06 08:38:58;;;;;;;3.42;1.45;;;17.00;43.80;;;;;;5040949;28;20104;-39
2022/01/06 08:41:24;;;;;;;3.88;1.90;;;16.90;43.80;;;;;;5058798;28;20017;-40
2022/01/06 08:43:51;;;;;;;3.92;1.80;;;16.90;43.90;;;;;;5040649;28;20529;-40
2022/01/06 08:46:17;;;;;;;3.95;1.60;;;16.90;44.00;;;;;;5058657;28;20116;-40
2022/01/06 08:48:42;;;;;;;5.07;1.92;;;16.80;44.00;;;;;;5040928;28;20053;-39
2022/01/06 08:51:08;;;;;;;5.35;1.80;;;16.80;44.10;;;;;;5058429;28;20017;-40
2022/01/06 08:53:35;;;;;;;3.97;1.60;;;16.80;44.20;;;;;;5040878;28;20017;-39
2022/01/06 08:56:00;;;;;;;4.95;1.60;;;16.70;44.20;;;;;;5020950;28;20038;-40
2022/01/06 08:58:26;;;;;;;4.53;1.90;;;16.70;44.40;;;;;;5018345;28;20062;-41
2022/01/06 09:00:52;;;;;;;6.63;2.05;;;16.60;45.00;;;;;;5018391;28;20064;-42
2022/01/06 09:03:17;;;;;;;4.38;2.00;;;16.60;44.50;;;;;;5017617;28;20034;-40
2022/01/06 09:05:43;;;;;;;4.22;1.98;;;16.60;44.60;;;;;;5018578;28;20014;-40
2022/01/06 09:08:09;;;;;;;7.00;1.90;;;16.60;44.60;;;;;;5017274;28;20061;-41
2022/01/06 09:10:36;;;;;;;4.50;1.80;;;16.60;44.60;;;;;;5018389;28;20018;-42
2022/01/06 09:13:02;;;;;;;4.65;1.73;;;16.50;44.70;;;;;;5018401;28;20097;-44
2022/01/06 09:15:28;;;;;;;4.28;1.90;;;16.50;44.90;;;;;;5018056;28;20017;-42
2022/01/06 09:17:53;;;;;;;3.85;1.70;;;16.40;44.90;;;;;;5018332;28;20124;-43
2022/01/06 09:20:20;;;;;;;4.97;1.80;;;16.40;45.00;;;;;;5016817;28;20477;-42
2022/01/06 09:22:47;;;;;;;5.30;1.90;;;16.40;45.10;;;;;;5018834;28;20018;-45
2022/01/06 09:25:13;;;;;;;5.50;2.08;;;16.30;45.20;;;;;;5017795;28;20473;-45
2022/01/06 09:27:40;;;;;;;4.32;1.73;;;16.30;45.20;;;;;;5018614;28;20033;-49
2022/01/06 09:30:07;;;;;;;5.63;2.10;;;16.30;45.30;;;;;;5018412;28;20014;-43
2022/01/06 09:32:32;;;;;;;2.97;1.60;;;16.20;45.40;;;;;;5019207;28;20025;-43
2022/01/06 09:34:59;;;;;;;4.28;1.83;;;16.30;45.50;;;;;;5002053;28;20022;-43
2022/01/06 09:37:25;;;;;;;4.97;2.22;;;16.30;45.60;;;;;;5020842;28;20057;-48
2022/01/06 09:39:51;;;;;;;6.15;2.00;;;16.30;45.50;;;;;;5021179;28;20030;-37
2022/01/06 09:42:17;;;;;;;5.05;1.70;;;16.40;45.50;;;;;;5020533;28;20021;-37
2022/01/06 09:44:43;;;;;;;5.35;1.75;;;16.40;45.30;;;;;;5018939;28;20064;-36
2022/01/06 09:47:09;;;;;;;5.47;1.85;;;16.30;45.30;;;;;;5017791;28;20014;-38
2022/01/06 09:49:38;;;;;;;4.47;1.67;;;16.30;45.30;;;;;;5017949;28;20544;-37
2022/01/06 09:52:07;;;;;;;3.55;1.77;;;16.30;45.40;;;;;;5017392;28;20115;-37
2022/01/06 09:54:34;;;;;;;4.93;2.43;;;16.20;45.50;;;;;;5026611;28;20061;-37
2022/01/06 09:57:03;;;;;;;4.70;1.90;;;16.20;45.60;;;;;;5057367;28;20044;-36
2022/01/06 09:59:29;;;;;;;5.65;2.10;;;16.20;45.70;;;;;;5056834;28;20041;-36
2022/01/06 10:01:55;;;;;;;4.93;1.90;;;16.20;45.80;;;;;;5057602;28;20017;-36
2022/01/06 10:04:25;;;;;;;4.32;1.98;;;16.10;45.90;;;;;;5057060;28;20021;-36
2022/01/06 10:07:01;;;;;;;5.65;1.90;;;16.10;45.90;;;;;;5056864;28;20108;-37
2022/01/06 10:09:28;;;;;;;6.00;2.13;;;16.10;45.90;;;;;;5056639;28;20036;-36
2022/01/06 10:11:55;;;;;;;5.05;2.38;;;16.20;46.10;;;;;;5056836;28;20389;-36
2022/01/06 10:14:30;;;;;;;6.10;2.20;;;16.20;46.00;;;;;;5056570;28;20025;-38
2022/01/06 10:16:56;;;;;;;4.93;1.90;;;16.20;45.90;;;;;;5041638;28;20056;-38
2022/01/06 10:19:22;;;;;;;6.30;2.17;;;16.20;46.10;;;;;;5040553;28;20024;-36
2022/01/06 10:21:52;;;;;;;7.15;1.80;;;16.30;45.70;;;;;;5038536;28;20055;-36
2022/01/06 10:24:20;;;;;;;6.63;2.20;;;16.50;45.50;;;;;;5039471;28;20059;-37
2022/01/06 10:27:04;;;;;;;5.70;2.38;;;16.50;45.30;;;;;;5055810;28;20100;-37
2022/01/06 10:29:32;;;;;;;4.38;1.90;;;16.60;45.10;;;;;;5054895;28;20025;-37
2022/01/06 10:32:02;;;;;;;5.72;2.20;;;16.60;45.00;;;;;;5053658;28;20021;-36
2022/01/06 10:34:32;;;;;;;4.38;2.03;;;16.50;45.00;;;;;;5054154;28;20016;-37
2022/01/06 10:36:57;;;;;;;;;;;16.50;45.10;;;;;;5054506;28;20029;-36
2022/01/06 10:39:23;;;;;;;6.35;2.30;;;16.50;45.10;;;;;;5036206;28;19928;-37
2022/01/06 10:41:49;;;;;;;6.78;2.53;;;16.50;45.70;;;;;;5053726;28;20035;-39
2022/01/06 10:44:15;;;;;;;4.95;2.15;;;16.40;45.20;;;;;;5035501;28;20009;-39
2022/01/06 10:46:42;;;;;;;5.22;2.00;;;16.50;45.30;;;;;;5054001;28;20027;-39
2022/01/06 10:49:09;;;;;;;6.90;2.45;;;16.40;45.30;;;;;;5053969;28;20017;-39
2022/01/06 10:51:49;;;;;;;7.25;2.92;;;16.40;45.40;;;;;;5035970;28;20017;-39
2022/01/06 10:54:38;;;;;;;5.30;2.35;;;16.50;45.30;;;;;;5053545;28;20021;-39
2022/01/06 10:57:09;;;;;;;;;;;16.50;45.10;;;;;;5054169;28;20025;-37
2022/01/06 10:59:35;;;;;;;4.57;2.10;;;16.60;44.90;;;;;;5053828;28;19905;-41
2022/01/06 11:02:01;;;;;;;6.18;2.50;;;16.70;44.80;;;;;;5055187;28;20024;-42
2022/01/06 11:04:28;;;;;;;5.70;2.13;;;16.70;44.70;;;;;;5037379;28;20017;-42
2022/01/06 11:06:55;;;;;;;5.97;2.20;;;16.70;44.60;;;;;;5054615;28;20032;-41
2022/01/06 11:09:22;;;;;;;5.13;2.03;;;16.80;44.70;;;;;;5054862;28;20025;-40
2022/01/06 11:14:26;;;;;;;6.00;2.38;;;16.80;44.40;;;;;;5038490;28;20025;-39
2022/01/06 11:16:52;;;;;;;6.57;2.55;;;16.80;44.40;;;;;;5053665;28;20017;-39
2022/01/06 11:19:20;;;;;;;6.60;2.70;;;16.80;44.40;;;;;;5036259;28;20075;-39
2022/01/06 11:21:47;;;;;;;5.07;2.33;;;16.80;44.40;;;;;;5036136;28;20020;-40
2022/01/06 11:24:23;;;;;;;7.40;2.67;;;16.80;44.30;;;;;;5035530;28;20017;-40
2022/01/06 11:27:08;;;;;;;6.40;2.30;;;16.90;44.30;;;;;;5034568;28;20021;-39
2022/01/06 11:29:42;;;;;;;5.45;2.50;;;16.80;44.30;;;;;;5053528;28;20024;-40
2022/01/06 11:32:18;;;;;;;4.82;2.47;;;16.80;44.30;;;;;;5054859;28;20028;-41
2022/01/06 11:34:44;;;;;;;5.88;2.17;;;16.80;44.40;;;;;;5054462;28;20017;-40
2022/01/06 11:37:12;;;;;;;5.03;2.13;;;16.80;44.40;;;;;;5036572;28;20036;-42
2022/01/06 11:39:38;;;;;;;6.18;2.53;;;16.80;44.40;;;;;;5054497;28;20009;-40
2022/01/06 11:42:15;;;;;;;6.65;2.33;;;16.80;44.40;;;;;;5036347;28;20044;-41
2022/01/06 11:44:52;;;;;;;7.63;2.50;;;16.80;44.50;;;;;;5038719;28;20021;-44
2022/01/06 11:47:31;;;;;;;6.95;2.83;;;16.80;44.60;;;;;;5058322;28;20021;-45
2022/01/06 11:50:21;;;;;;;7.15;2.92;;;16.70;44.60;;;;;;5058022;28;20013;-45
2022/01/06 11:52:58;;;;;;;7.28;2.72;;;16.70;44.60;;;;;;5057386;28;20025;-44
2022/01/06 11:55:34;;;;;;;6.35;2.28;;;16.60;44.70;;;;;;5057287;28;20052;-41
2022/01/06 11:58:19;;;;;;;4.93;2.45;;;16.60;44.80;;;;;;5057336;28;20082;-45
2022/01/06 12:01:04;;;;;;;7.57;2.20;;;16.50;44.90;;;;;;5054068;28;20469;-40
2022/01/06 12:03:40;;;;;;;6.35;2.40;;;16.50;45.00;;;;;;5053857;28;20483;-42
2022/01/06 12:06:07;;;;;;;5.57;2.47;;;16.40;45.00;;;;;;5036917;28;20021;-41
2022/01/06 12:08:35;;;;;;;6.65;2.42;;;16.40;45.10;;;;;;5053578;28;20160;-42
2022/01/06 12:11:01;;;;;;;4.72;2.30;;;16.40;45.30;;;;;;5036929;28;20025;-41
2022/01/06 12:13:26;;;;;;;8.15;2.55;;;16.30;45.40;;;;;;5054983;28;20029;-43
2022/01/06 12:15:57;;;;;;;5.60;2.53;;;16.30;45.40;;;;;;5054403;28;20029;-42
2022/01/06 12:18:27;;;;;;;5.53;2.63;;;16.30;45.60;;;;;;5056680;28;20010;-42
2022/01/06 12:20:53;;;;;;;;;;;16.30;45.70;;;;;;5039179;28;20040;-42
2022/01/06 12:23:19;;;;;;;6.32;2.67;;;16.20;45.60;;;;;;5054623;28;20421;-42
2022/01/06 12:26:00;;;;;;;5.82;2.25;;;16.20;45.70;;;;;;5054853;28;20048;-41
2022/01/06 12:28:26;;;;;;;7.57;2.67;;;16.20;45.80;;;;;;5055394;28;20020;-43
2022/01/06 12:31:03;;;;;;;7.38;2.65;;;16.20;45.90;;;;;;5053212;28;20482;-45
2022/01/06 12:33:31;;;;;;;5.43;2.30;;;16.10;45.90;;;;;;5052710;28;20041;-42
2022/01/06 12:35:57;;;;;;;5.95;2.50;;;16.10;46.00;;;;;;5052374;28;20021;-44
2022/01/06 12:38:32;;;;;;;6.05;2.35;;;16.10;46.00;;;;;;5056186;28;20049;-42
2022/01/06 12:40:58;;;;;;;7.40;2.50;;;16.10;46.10;;;;;;5056111;28;20088;-36
2022/01/06 12:43:26;;;;;;;5.80;2.60;;;16.00;46.60;;;;;;5055796;28;20013;-36
2022/01/06 12:46:17;;;;;;;5.75;2.55;;;16.00;46.20;;;;;;5056325;28;20105;-37
2022/01/06 12:48:45;;;;;;;6.07;2.88;;;16.00;46.30;;;;;;5056180;28;20013;-36
2022/01/06 12:51:13;;;;;;;6.18;2.60;;;16.00;46.30;;;;;;5055954;28;20014;-36
2022/01/06 12:53:40;;;;;;;7.55;3.10;;;15.90;46.40;;;;;;5056050;28;20087;-36
2022/01/06 12:56:06;;;;;;;6.57;2.33;;;15.90;46.50;;;;;;5055518;28;20132;-37
2022/01/06 12:58:37;;;;;;;7.05;2.70;;;15.90;46.50;;;;;;5056006;28;20017;-36
2022/01/06 13:01:07;;;;;;;5.00;2.60;;;15.90;46.60;;;;;;5056001;28;20013;-36